Time;durP1;ratioP1;P1;durP2;ratioP2;P2;SDS_P1;SDS_P2;PMS_P1;PMS_P2;Temp;Humidity;BMP_temperature;BMP_pressure;BME280_temperature;BME280_humidity;BME280_pressure;Samples;Min_cycle;Max_cycle;Signal;HPM_P1;HPM_P2
2022/03/20 00:00:39;;;;;;;12.27;7.53;;;4.30;1.00;;;;;;5039598;28;20514;-75
2022/03/20 00:03:09;;;;;;;14.63;8.82;;;4.30;1.00;;;;;;5037701;28;20454;-76
2022/03/20 00:05:38;;;;;;;14.68;7.53;;;4.30;1.00;;;;;;5036402;28;20052;-75
2022/03/20 00:08:09;;;;;;;16.50;8.52;;;4.40;1.00;;;;;;5036469;28;20060;-76
2022/03/20 00:10:38;;;;;;;14.35;7.40;;;4.30;1.00;;;;;;5054934;28;20044;-76
2022/03/20 00:13:07;;;;;;;12.02;7.20;;;4.30;1.00;;;;;;5054915;28;20052;-76
2022/03/20 00:15:35;;;;;;;13.82;7.43;;;4.30;1.00;;;;;;5054548;28;20107;-76
2022/03/20 00:18:03;;;;;;;12.20;7.70;;;4.30;1.00;;;;;;5036272;28;20045;-76
2022/03/20 00:20:35;;;;;;;12.07;7.03;;;4.20;1.00;;;;;;5020385;28;20057;-75
2022/03/20 00:23:04;;;;;;;12.27;6.05;;;4.20;1.00;;;;;;5033830;28;20037;-75
2022/03/20 00:25:32;;;;;;;13.10;7.00;;;4.20;1.00;;;;;;5034469;28;20092;-76
2022/03/20 00:28:02;;;;;;;14.10;7.82;;;4.20;1.00;;;;;;5017524;28;20052;-76
2022/03/20 00:30:29;;;;;;;12.30;7.80;;;4.20;1.00;;;;;;5018168;28;20068;-75
2022/03/20 00:32:57;;;;;;;14.82;7.10;;;4.10;1.00;;;;;;5033941;28;20045;-76
2022/03/20 00:35:25;;;;;;;12.52;6.90;;;4.10;1.00;;;;;;5035059;28;20042;-76
2022/03/20 00:37:53;;;;;;;11.98;6.68;;;4.10;1.00;;;;;;5033774;28;20083;-76
2022/03/20 00:40:21;;;;;;;10.90;6.43;;;4.10;1.00;;;;;;5034208;28;20048;-76
2022/03/20 00:42:48;;;;;;;15.32;6.97;;;4.00;1.00;;;;;;5015824;28;20476;-76
2022/03/20 00:45:17;;;;;;;11.82;6.45;;;4.00;1.00;;;;;;5033796;28;20037;-76
2022/03/20 00:47:44;;;;;;;13.73;7.20;;;4.00;1.00;;;;;;5034910;28;20412;-74
2022/03/20 00:50:12;;;;;;;11.60;6.70;;;4.00;1.00;;;;;;5034477;28;20049;-76
2022/03/20 00:52:39;;;;;;;11.40;5.97;;;3.90;1.00;;;;;;5016238;28;20045;-75
2022/03/20 00:55:07;;;;;;;9.35;5.82;;;3.90;1.00;;;;;;5033979;28;20056;-76
2022/03/20 00:57:35;;;;;;;11.43;6.57;;;3.90;1.00;;;;;;5033376;28;20501;-76
2022/03/20 01:00:02;;;;;;;13.80;6.47;;;3.80;1.00;;;;;;5016017;28;20037;-75
2022/03/20 01:02:38;;;;;;;11.40;6.43;;;3.80;1.00;;;;;;5015877;28;20132;-76
2022/03/20 01:05:06;;;;;;;10.13;5.95;;;3.80;1.00;;;;;;5033874;28;20061;-75
2022/03/20 01:07:34;;;;;;;9.80;6.25;;;3.80;1.00;;;;;;5052172;28;20089;-75
2022/03/20 01:10:02;;;;;;;13.02;6.63;;;3.80;1.00;;;;;;5054659;28;20559;-75
2022/03/20 01:12:30;;;;;;;10.25;5.60;;;3.80;1.00;;;;;;5059065;28;20049;-74
2022/03/20 01:14:57;;;;;;;11.18;6.47;;;3.80;1.00;;;;;;5022458;28;20133;-75
2022/03/20 01:17:25;;;;;;;11.35;6.13;;;3.80;1.00;;;;;;5037918;28;20080;-74
2022/03/20 01:19:53;;;;;;;12.38;6.93;;;3.70;1.00;;;;;;5030440;28;20048;-75
2022/03/20 01:22:21;;;;;;;11.55;6.80;;;3.70;1.00;;;;;;5074552;28;20089;-74
2022/03/20 01:24:48;;;;;;;10.57;6.22;;;3.70;1.00;;;;;;5063835;28;20044;-76
2022/03/20 01:27:16;;;;;;;15.32;6.80;;;3.70;1.00;;;;;;5068570;28;20080;-74
2022/03/20 01:29:44;;;;;;;13.48;7.22;;;3.70;1.00;;;;;;5061379;28;20084;-74
2022/03/20 01:32:12;;;;;;;15.55;8.48;;;3.70;1.00;;;;;;5060896;28;20046;-74
2022/03/20 01:34:39;;;;;;;39.03;20.95;;;3.70;1.00;;;;;;5028041;28;20062;-75
2022/03/20 01:37:09;;;;;;;11.43;7.03;;;3.60;1.00;;;;;;5001188;28;20074;-76
2022/03/20 01:39:36;;;;;;;11.50;7.45;;;3.60;1.00;;;;;;4999515;28;20408;-76
2022/03/20 01:42:05;;;;;;;13.63;6.95;;;3.50;1.00;;;;;;5017181;28;20520;-76
2022/03/20 01:44:33;;;;;;;10.70;6.75;;;3.50;1.00;;;;;;4999121;28;20509;-76
2022/03/20 01:47:00;;;;;;;13.57;7.38;;;3.50;1.00;;;;;;5016982;28;20483;-76
2022/03/20 01:49:28;;;;;;;13.82;6.15;;;3.50;1.00;;;;;;4999624;28;20052;-76
2022/03/20 01:54:44;;;;;;;13.93;7.03;;;3.40;1.00;;;;;;4999384;28;20045;-76
2022/03/20 01:57:16;;;;;;;12.27;6.15;;;3.30;1.00;;;;;;4999231;28;20129;-76
2022/03/20 01:59:44;;;;;;;13.90;6.70;;;3.30;1.00;;;;;;5017054;28;20042;-76
2022/03/20 02:02:11;;;;;;;13.77;7.95;;;3.30;1.00;;;;;;4998727;28;20128;-75
2022/03/20 02:04:39;;;;;;;15.85;8.40;;;3.30;1.00;;;;;;4999704;28;20409;-76
2022/03/20 02:07:08;;;;;;;15.63;8.45;;;3.20;1.00;;;;;;5017102;28;20049;-77
2022/03/20 02:09:37;;;;;;;12.70;7.70;;;3.20;1.00;;;;;;4999680;28;20076;-75
2022/03/20 02:12:07;;;;;;;16.13;8.93;;;3.10;1.00;;;;;;5017234;28;20046;-76
2022/03/20 02:14:35;;;;;;;13.63;7.70;;;3.00;1.00;;;;;;5016717;28;20042;-76
2022/03/20 02:17:03;;;;;;;17.45;9.15;;;3.00;1.00;;;;;;4999438;28;20493;-75
2022/03/20 02:19:32;;;;;;;22.58;12.57;;;3.00;1.00;;;;;;5015794;28;20049;-76
2022/03/20 02:22:01;;;;;;;18.67;10.27;;;2.90;1.00;;;;;;4999507;28;20050;-75
2022/03/20 02:24:38;;;;;;;13.80;8.05;;;2.90;1.00;;;;;;4998716;28;20041;-76
2022/03/20 02:27:09;;;;;;;15.75;8.90;;;3.00;1.00;;;;;;5027436;28;20037;-76
2022/03/20 02:29:37;;;;;;;18.05;9.02;;;2.90;1.00;;;;;;5037198;28;20045;-75
2022/03/20 02:32:06;;;;;;;16.70;9.07;;;2.80;1.00;;;;;;5036866;28;20046;-75
2022/03/20 02:34:34;;;;;;;16.65;9.45;;;2.70;1.00;;;;;;5018390;28;20161;-75
2022/03/20 02:37:05;;;;;;;17.65;9.95;;;2.80;1.00;;;;;;5019537;28;20500;-76
2022/03/20 02:39:33;;;;;;;17.42;9.88;;;2.70;1.00;;;;;;5038287;28;20048;-77
2022/03/20 02:42:02;;;;;;;18.10;9.10;;;2.70;1.00;;;;;;5020531;28;20136;-77
2022/03/20 02:44:50;;;;;;;18.50;8.70;;;2.60;1.00;;;;;;5028913;28;20073;-75
2022/03/20 02:47:20;;;;;;;14.05;7.85;;;2.50;1.00;;;;;;5037482;28;20623;-76
2022/03/20 02:49:50;;;;;;;13.65;7.53;;;2.60;1.00;;;;;;5055799;28;20049;-76
2022/03/20 02:52:19;;;;;;;18.02;10.50;;;2.50;1.00;;;;;;5025522;28;20049;-76
2022/03/20 02:54:47;;;;;;;15.00;8.90;;;2.50;1.00;;;;;;5044249;28;20044;-76
2022/03/20 02:57:14;;;;;;;17.73;9.52;;;2.50;1.00;;;;;;5023054;28;20049;-76
2022/03/20 02:59:42;;;;;;;15.40;8.60;;;2.50;1.00;;;;;;5021814;28;20053;-76
2022/03/20 03:02:11;;;;;;;16.65;9.52;;;2.50;1.00;;;;;;5022835;28;20431;-76
2022/03/20 03:04:40;;;;;;;18.58;10.10;;;2.50;1.00;;;;;;5023809;28;20046;-76
2022/03/20 03:07:08;;;;;;;18.02;8.95;;;2.50;1.00;;;;;;5022685;28;20144;-76
2022/03/20 03:12:23;;;;;;;16.50;9.32;;;2.50;1.00;;;;;;5041060;28;20042;-76
2022/03/20 03:17:36;;;;;;;15.23;7.97;;;2.40;1.00;;;;;;5041751;28;20040;-76
2022/03/20 03:20:04;;;;;;;14.77;8.40;;;2.30;1.00;;;;;;5030374;28;20076;-75
2022/03/20 03:22:31;;;;;;;16.60;8.88;;;2.30;1.00;;;;;;5054463;28;20147;-76
2022/03/20 03:25:00;;;;;;;13.23;7.75;;;2.30;1.00;;;;;;5037177;28;20045;-76
2022/03/20 03:27:28;;;;;;;10.55;6.93;;;2.40;1.00;;;;;;5022738;28;20060;-76
2022/03/20 03:29:55;;;;;;;13.00;8.02;;;2.30;1.00;;;;;;5017797;28;20087;-76
2022/03/20 03:32:23;;;;;;;13.82;7.90;;;2.40;1.00;;;;;;5017134;28;20041;-76
2022/03/20 03:37:40;;;;;;;15.38;8.10;;;2.40;1.00;;;;;;5001560;28;20041;-76
2022/03/20 03:40:10;;;;;;;13.10;8.05;;;2.30;1.00;;;;;;5037273;28;20051;-75
2022/03/20 03:42:39;;;;;;;17.15;9.10;;;2.30;1.00;;;;;;5032612;28;20053;-75
2022/03/20 03:45:08;;;;;;;14.95;8.02;;;2.30;1.00;;;;;;5049902;28;20048;-76
2022/03/20 03:47:36;;;;;;;15.77;7.60;;;2.30;1.00;;;;;;5059115;28;20113;-75
2022/03/20 03:50:03;;;;;;;16.45;8.68;;;2.30;1.00;;;;;;5058803;28;20050;-76
2022/03/20 03:52:31;;;;;;;17.92;9.23;;;2.20;1.00;;;;;;5028616;28;20141;-76
2022/03/20 03:54:58;;;;;;;16.33;8.18;;;2.30;1.00;;;;;;5040167;28;20041;-76
2022/03/20 03:57:27;;;;;;;14.90;8.32;;;2.30;1.00;;;;;;5040649;28;20049;-76
2022/03/20 03:59:55;;;;;;;16.10;8.00;;;2.30;1.00;;;;;;5058496;28;20014;-76
2022/03/20 04:02:22;;;;;;;15.65;7.82;;;2.20;1.00;;;;;;5030941;28;20049;-76
2022/03/20 04:04:50;;;;;;;14.98;7.97;;;2.20;1.00;;;;;;5017893;28;20058;-76
2022/03/20 04:07:18;;;;;;;19.63;9.63;;;2.20;1.00;;;;;;5035146;28;20045;-76
2022/03/20 04:09:46;;;;;;;19.45;10.30;;;2.20;1.00;;;;;;5018774;28;20073;-75
2022/03/20 04:12:14;;;;;;;15.43;9.40;;;2.10;1.00;;;;;;5035186;28;20465;-76
2022/03/20 04:14:43;;;;;;;21.55;10.02;;;2.00;1.00;;;;;;5017499;28;20524;-76
2022/03/20 04:17:11;;;;;;;18.35;10.38;;;2.00;1.00;;;;;;5034845;28;20550;-76
2022/03/20 04:19:39;;;;;;;17.08;9.00;;;2.00;1.00;;;;;;5043323;28;20120;-76
2022/03/20 04:22:06;;;;;;;17.13;9.48;;;2.00;1.00;;;;;;5036302;28;20110;-75
2022/03/20 04:24:36;;;;;;;15.63;8.63;;;2.00;1.00;;;;;;5036705;28;20052;-75
2022/03/20 04:27:05;;;;;;;20.38;9.40;;;2.00;1.00;;;;;;5025278;28;20060;-76
2022/03/20 04:29:33;;;;;;;15.55;8.55;;;2.00;1.00;;;;;;5016710;28;20049;-76
2022/03/20 04:32:02;;;;;;;17.27;9.52;;;2.10;1.00;;;;;;5034098;28;20061;-76
2022/03/20 04:34:30;;;;;;;20.75;9.38;;;2.00;1.00;;;;;;5015608;28;20481;-76
2022/03/20 04:36:57;;;;;;;17.20;10.07;;;2.00;1.00;;;;;;5016329;28;20049;-76
2022/03/20 04:39:25;;;;;;;19.85;9.63;;;2.00;1.00;;;;;;5016858;28;20042;-76
2022/03/20 04:41:53;;;;;;;15.85;8.38;;;2.00;1.00;;;;;;5016054;28;20049;-76
2022/03/20 04:44:20;;;;;;;18.05;9.60;;;1.90;1.00;;;;;;5020135;28;20042;-76
2022/03/20 04:46:49;;;;;;;18.75;10.38;;;1.90;1.00;;;;;;5038025;28;20049;-76
2022/03/20 05:00:18;;;;;;;25.52;14.20;;;2.00;1.00;;;;;;5020029;28;20046;-76
2022/03/20 05:02:46;;;;;;;23.42;12.63;;;2.00;1.00;;;;;;5019606;28;20069;-76
2022/03/20 05:05:15;;;;;;;22.25;12.00;;;2.00;1.00;;;;;;5037905;28;20117;-76
2022/03/20 05:07:43;;;;;;;22.65;10.90;;;2.00;1.00;;;;;;5020031;28;20049;-76
2022/03/20 05:15:40;;;;;;;16.83;9.50;;;2.00;1.00;;;;;;5026810;28;20049;-76
2022/03/20 05:18:09;;;;;;;16.35;8.90;;;2.10;1.00;;;;;;5039168;28;20046;-76
2022/03/20 05:20:38;;;;;;;18.17;10.02;;;2.10;1.00;;;;;;5058673;28;20045;-75
2022/03/20 05:23:05;;;;;;;16.35;9.68;;;2.10;1.00;;;;;;5045811;28;20051;-76
2022/03/20 05:25:33;;;;;;;13.70;7.72;;;2.20;1.00;;;;;;5039683;28;20049;-75
2022/03/20 05:28:00;;;;;;;17.15;8.43;;;2.20;1.00;;;;;;5020934;28;20076;-74
2022/03/20 05:30:28;;;;;;;18.95;8.57;;;2.20;1.00;;;;;;5019453;28;20443;-76
2022/03/20 05:32:55;;;;;;;13.85;7.43;;;2.30;1.00;;;;;;5037009;28;20052;-76
2022/03/20 05:35:23;;;;;;;13.93;8.30;;;2.40;1.00;;;;;;5037777;28;20045;-77
2022/03/20 05:37:52;;;;;;;17.85;7.65;;;2.40;1.00;;;;;;5037167;28;20542;-77
2022/03/20 05:40:20;;;;;;;19.17;10.35;;;2.50;1.00;;;;;;5019248;28;20119;-77
2022/03/20 05:42:47;;;;;;;16.65;9.50;;;2.40;1.00;;;;;;5020503;28;20045;-77
2022/03/20 05:45:15;;;;;;;15.23;8.05;;;2.50;1.00;;;;;;5038804;28;20073;-77
2022/03/20 05:47:43;;;;;;;17.35;9.57;;;2.50;1.00;;;;;;5037813;28;20049;-77
2022/03/20 05:50:12;;;;;;;17.35;9.23;;;2.60;1.00;;;;;;5020305;28;20073;-77
2022/03/20 05:52:40;;;;;;;17.05;9.02;;;2.70;1.00;;;;;;5018486;28;20050;-77
2022/03/20 05:55:10;;;;;;;15.15;8.60;;;2.90;1.00;;;;;;5003118;28;20404;-77
2022/03/20 06:00:40;;;;;;;22.45;11.15;;;3.10;1.00;;;;;;4995717;28;20125;-77
2022/03/20 06:03:07;;;;;;;14.88;9.30;;;3.30;1.00;;;;;;4979179;28;20601;-77
2022/03/20 06:05:35;;;;;;;15.50;8.38;;;3.50;1.00;;;;;;4994876;28;20070;-77
2022/03/20 06:08:02;;;;;;;16.65;8.82;;;3.60;1.00;;;;;;4979090;28;20145;-77
2022/03/20 06:10:32;;;;;;;13.32;8.10;;;3.80;1.00;;;;;;4995222;28;20053;-77
2022/03/20 06:13:01;;;;;;;15.63;8.70;;;4.00;1.00;;;;;;4995206;28;20050;-78
2022/03/20 06:15:29;;;;;;;15.52;8.60;;;4.20;1.00;;;;;;4987499;28;20046;-78
2022/03/20 06:17:57;;;;;;;16.10;8.15;;;4.40;1.00;;;;;;5015993;28;20049;-77
2022/03/20 06:20:25;;;;;;;10.80;6.60;;;4.50;1.00;;;;;;5000448;28;20480;-76
2022/03/20 06:22:52;;;;;;;13.10;7.30;;;4.70;1.00;;;;;;4969476;28;20055;-76
2022/03/20 06:25:20;;;;;;;14.20;7.40;;;5.00;1.00;;;;;;4959893;28;20137;-77
2022/03/20 06:27:56;;;;;;;12.73;8.07;;;5.10;1.00;;;;;;4992540;28;20054;-76
2022/03/20 06:30:24;;;;;;;10.15;5.90;;;5.30;1.00;;;;;;4995605;28;20407;-76
2022/03/20 06:32:52;;;;;;;13.52;7.57;;;5.40;1.00;;;;;;4972319;28;20048;-77
2022/03/20 06:35:19;;;;;;;11.38;6.40;;;5.50;1.00;;;;;;5008593;28;20548;-77
2022/03/20 06:37:49;;;;;;;11.43;6.10;;;5.30;1.00;;;;;;5036709;28;20069;-77
2022/03/20 06:40:17;;;;;;;11.60;5.93;;;5.50;1.00;;;;;;5037714;28;20052;-77
2022/03/20 06:42:45;;;;;;;10.63;6.20;;;5.40;1.00;;;;;;5036927;28;20072;-77
2022/03/20 06:45:18;;;;;;;9.43;5.47;;;5.40;1.00;;;;;;5019344;28;20052;-77
2022/03/20 06:47:45;;;;;;;8.80;5.63;;;5.60;1.00;;;;;;5018892;28;20045;-77
2022/03/20 06:50:16;;;;;;;11.27;6.25;;;5.60;1.00;;;;;;5035349;28;20068;-76
2022/03/20 06:52:44;;;;;;;14.90;7.68;;;5.60;1.00;;;;;;5009516;28;20853;-78
2022/03/20 06:55:14;;;;;;;12.65;7.00;;;5.70;1.00;;;;;;5035839;28;20197;-76
2022/03/20 06:57:42;;;;;;;13.05;6.85;;;5.80;1.00;;;;;;5018675;28;20132;-77
2022/03/20 07:00:11;;;;;;;14.23;7.13;;;5.80;1.00;;;;;;5018132;28;20041;-76
2022/03/20 07:02:54;;;;;;;11.40;6.25;;;5.70;1.00;;;;;;5018698;28;20132;-77
2022/03/20 07:05:22;;;;;;;10.57;6.22;;;5.90;1.00;;;;;;5018369;28;20054;-78
2022/03/20 07:07:50;;;;;;;10.25;6.35;;;6.10;1.00;;;;;;5038100;28;20037;-78
2022/03/20 07:10:22;;;;;;;10.43;5.78;;;6.20;1.00;;;;;;5018897;28;20060;-79
2022/03/20 07:12:50;;;;;;;13.60;5.65;;;6.30;1.00;;;;;;5003351;28;20060;-76
2022/03/20 07:15:19;;;;;;;9.35;5.60;;;6.20;1.00;;;;;;5035239;28;20034;-77
2022/03/20 07:17:48;;;;;;;10.98;5.68;;;6.30;1.00;;;;;;5036896;28;20095;-77
2022/03/20 07:20:17;;;;;;;9.85;5.55;;;6.40;1.00;;;;;;5035900;28;20040;-78
2022/03/20 07:22:48;;;;;;;8.77;5.10;;;6.40;1.00;;;;;;5032558;28;20025;-76
2022/03/20 07:30:57;;;;;;;15.18;7.28;;;6.50;1.00;;;;;;4993510;28;20068;-77
2022/03/20 07:33:25;;;;;;;17.48;6.22;;;6.80;1.00;;;;;;5042392;28;20045;-77
2022/03/20 07:35:58;;;;;;;15.40;8.07;;;6.80;1.00;;;;;;5032891;28;20041;-76
2022/03/20 07:38:26;;;;;;;15.40;7.35;;;6.80;1.00;;;;;;5009237;28;20199;-77
2022/03/20 07:40:53;;;;;;;11.70;6.25;;;7.00;1.00;;;;;;5001067;28;20046;-76
2022/03/20 07:43:21;;;;;;;38.85;17.80;;;6.90;1.00;;;;;;5017804;28;20073;-77
2022/03/20 07:45:50;;;;;;;12.73;6.75;;;7.10;1.00;;;;;;5017615;28;20552;-78
2022/03/20 07:48:17;;;;;;;20.95;10.73;;;7.00;1.00;;;;;;5000183;28;20050;-76
2022/03/20 07:50:45;;;;;;;11.18;6.63;;;7.00;1.00;;;;;;5017836;28;20050;-77
2022/03/20 07:53:16;;;;;;;16.15;8.02;;;7.10;1.00;;;;;;5036449;28;20535;-77
2022/03/20 07:55:44;;;;;;;13.93;6.68;;;7.20;1.00;;;;;;5036485;28;20037;-76
2022/03/20 07:58:12;;;;;;;12.07;6.10;;;7.30;1.00;;;;;;5035804;28;20033;-77
2022/03/20 08:00:40;;;;;;;12.85;6.05;;;7.50;1.00;;;;;;5018087;28;20053;-75
2022/03/20 08:03:08;;;;;;;11.50;6.22;;;7.20;1.00;;;;;;5035997;28;20042;-76
2022/03/20 08:05:35;;;;;;;13.60;7.13;;;7.30;1.00;;;;;;5018125;28;20041;-77
2022/03/20 08:08:03;;;;;;;12.57;6.25;;;7.40;1.00;;;;;;5025871;28;20443;-77
2022/03/20 08:10:32;;;;;;;11.95;6.15;;;7.30;1.00;;;;;;5034979;28;20053;-76
2022/03/20 08:13:00;;;;;;;8.35;5.20;;;7.20;1.00;;;;;;4997961;28;20109;-76
2022/03/20 08:15:27;;;;;;;10.25;4.97;;;7.10;1.00;;;;;;5011105;28;20042;-77
2022/03/20 08:18:00;;;;;;;11.55;5.78;;;6.90;1.00;;;;;;5036159;28;20397;-79
2022/03/20 08:20:28;;;;;;;9.35;5.00;;;6.80;1.00;;;;;;5028017;28;20053;-77
2022/03/20 08:22:56;;;;;;;9.73;5.40;;;7.10;1.00;;;;;;4997970;28;20101;-76
2022/03/20 08:25:30;;;;;;;11.90;7.40;;;7.00;1.00;;;;;;5016445;28;20040;-77
2022/03/20 08:28:02;;;;;;;10.70;5.50;;;7.30;1.00;;;;;;5037279;28;20463;-76
2022/03/20 08:30:32;;;;;;;13.57;6.65;;;7.50;1.00;;;;;;5036181;28;20046;-78
2022/03/20 08:32:59;;;;;;;16.52;8.13;;;7.70;1.00;;;;;;5014414;28;20091;-76
2022/03/20 08:35:26;;;;;;;14.48;6.32;;;7.70;1.00;;;;;;5001434;28;20060;-76
2022/03/20 08:37:55;;;;;;;15.02;6.63;;;7.80;1.00;;;;;;5032729;28;20041;-75
2022/03/20 08:40:25;;;;;;;12.27;6.13;;;7.90;1.00;;;;;;5034346;28;20512;-76
2022/03/20 08:42:54;;;;;;;11.88;5.85;;;7.90;1.00;;;;;;5035088;28;20049;-78
2022/03/20 08:45:23;;;;;;;13.70;6.65;;;7.30;1.00;;;;;;5017478;28;20516;-75
2022/03/20 08:47:51;;;;;;;13.80;6.32;;;7.00;1.00;;;;;;5011802;28;20083;-76
2022/03/20 08:50:19;;;;;;;12.50;5.65;;;7.30;1.00;;;;;;5034668;28;20041;-76
2022/03/20 08:52:48;;;;;;;12.27;6.20;;;7.40;1.00;;;;;;5032832;28;20551;-76
2022/03/20 08:55:17;;;;;;;14.45;6.38;;;7.70;1.00;;;;;;5016067;28;20044;-75
2022/03/20 08:57:46;;;;;;;11.90;6.43;;;7.70;1.00;;;;;;5015406;28;20408;-75
2022/03/20 09:00:18;;;;;;;11.57;6.15;;;7.30;1.00;;;;;;5014751;28;20049;-77
2022/03/20 09:02:48;;;;;;;11.30;5.95;;;7.20;1.00;;;;;;5033504;28;20140;-75
2022/03/20 09:05:17;;;;;;;14.88;6.63;;;7.10;1.00;;;;;;5033601;28;20038;-75
2022/03/20 09:07:46;;;;;;;13.20;6.10;;;7.00;1.00;;;;;;5016635;28;20113;-75
2022/03/20 09:10:15;;;;;;;9.68;5.00;;;7.10;1.00;;;;;;5016149;28;20428;-75
2022/03/20 09:12:44;;;;;;;11.45;5.60;;;7.10;1.00;;;;;;5033413;28;20042;-76
2022/03/20 09:15:13;;;;;;;10.70;5.32;;;7.20;1.00;;;;;;5014752;28;20072;-75
2022/03/20 09:20:27;;;;;;;9.35;5.55;;;7.50;1.00;;;;;;5030656;28;20051;-76
2022/03/20 09:22:55;;;;;;;8.77;5.88;;;7.50;1.00;;;;;;5036495;28;20053;-76
2022/03/20 09:25:23;;;;;;;9.50;5.55;;;7.50;1.00;;;;;;5032681;28;20041;-76
2022/03/20 09:27:52;;;;;;;15.48;5.97;;;7.50;1.00;;;;;;5034182;28;20049;-76
2022/03/20 09:30:21;;;;;;;9.00;5.43;;;7.50;1.00;;;;;;5051341;28;20037;-75
2022/03/20 09:32:49;;;;;;;9.32;4.88;;;7.60;1.00;;;;;;5003118;28;1281693;-75
2022/03/20 09:35:19;;;;;;;11.73;6.05;;;7.60;1.00;;;;;;5020350;28;20050;-75
2022/03/20 09:37:48;;;;;;;9.95;6.13;;;7.70;1.00;;;;;;5023432;28;20041;-76
2022/03/20 09:40:16;;;;;;;11.00;6.13;;;8.00;1.00;;;;;;5009698;28;20052;-74
2022/03/20 09:42:43;;;;;;;12.00;6.50;;;7.70;1.00;;;;;;5038805;28;20045;-72
2022/03/20 09:45:11;;;;;;;16.42;5.63;;;7.60;1.00;;;;;;5040339;28;20109;-74
2022/03/20 09:47:41;;;;;;;8.75;5.40;;;7.80;1.00;;;;;;5039480;28;20046;-74
2022/03/20 09:50:10;;;;;;;10.95;5.78;;;8.00;1.00;;;;;;5040174;28;20053;-74
2022/03/20 09:52:38;;;;;;;12.82;6.90;;;7.80;1.00;;;;;;5042756;28;20504;-74
2022/03/20 09:55:09;;;;;;;10.57;6.50;;;7.90;1.00;;;;;;5025571;28;20081;-74
2022/03/20 09:57:37;;;;;;;10.27;6.63;;;7.90;1.00;;;;;;5041321;28;20100;-73
2022/03/20 10:00:10;;;;;;;9.05;5.75;;;7.90;1.00;;;;;;5009195;28;20145;-75
2022/03/20 10:02:38;;;;;;;10.20;5.90;;;8.10;1.00;;;;;;5025847;28;20051;-74
2022/03/20 10:05:07;;;;;;;10.15;5.80;;;8.10;1.00;;;;;;5007885;28;20038;-74
2022/03/20 10:07:43;;;;;;;12.35;5.97;;;8.20;1.00;;;;;;4999258;28;20401;-74
2022/03/20 10:10:17;;;;;;;9.80;6.00;;;8.20;1.00;;;;;;5003612;28;20096;-74
2022/03/20 10:12:49;;;;;;;11.02;6.43;;;8.10;1.00;;;;;;4998793;28;20084;-73
2022/03/20 10:15:32;;;;;;;12.10;5.63;;;8.20;1.00;;;;;;4999532;28;20046;-73
2022/03/20 10:18:10;;;;;;;9.93;6.03;;;8.40;1.00;;;;;;5037027;28;20037;-74
2022/03/20 10:20:41;;;;;;;12.00;6.57;;;8.30;1.00;;;;;;5053675;28;20049;-74
2022/03/20 10:23:29;;;;;;;13.00;6.60;;;8.40;1.00;;;;;;5041194;28;20052;-74
2022/03/20 10:25:59;;;;;;;12.98;6.25;;;8.70;1.00;;;;;;5056139;28;20072;-74
2022/03/20 10:28:35;;;;;;;9.60;5.70;;;8.80;1.00;;;;;;5036862;28;20041;-74
2022/03/20 10:31:03;;;;;;;;;;;8.60;1.00;;;;;;5050115;28;20045;-74
2022/03/20 10:33:31;;;;;;;16.08;6.18;;;8.40;1.00;;;;;;5037244;28;19921;-74
2022/03/20 10:36:16;;;;;;;9.55;6.68;;;8.30;1.00;;;;;;5038604;28;20029;-74
2022/03/20 10:38:44;;;;;;;11.00;6.65;;;8.60;1.00;;;;;;5005329;28;20148;-75
2022/03/20 10:41:22;;;;;;;8.88;5.55;;;8.60;1.00;;;;;;5019712;28;20046;-74
2022/03/20 10:43:51;;;;;;;12.05;6.78;;;8.70;1.00;;;;;;5004713;28;20050;-74
2022/03/20 10:46:21;;;;;;;14.10;6.95;;;8.50;1.00;;;;;;5005877;28;20044;-74
2022/03/20 10:48:49;;;;;;;15.25;7.00;;;8.60;1.00;;;;;;5005314;28;20046;-73
2022/03/20 10:51:38;;;;;;;11.43;6.07;;;8.70;1.00;;;;;;5010904;28;20072;-74
2022/03/20 10:54:07;;;;;;;12.43;6.32;;;8.60;1.00;;;;;;5016853;28;20512;-75
2022/03/20 10:56:37;;;;;;;9.40;6.05;;;8.60;1.00;;;;;;5000092;28;20034;-73
2022/03/20 10:59:15;;;;;;;17.33;7.53;;;8.80;1.00;;;;;;5017780;28;20042;-73
2022/03/20 11:01:44;;;;;;;12.02;6.13;;;8.90;1.00;;;;;;4999044;28;20049;-73
2022/03/20 11:04:13;;;;;;;10.95;7.03;;;9.00;1.00;;;;;;5016986;28;20045;-74
2022/03/20 11:06:46;;;;;;;12.13;7.30;;;8.90;1.00;;;;;;5017025;28;20041;-73
2022/03/20 11:09:14;;;;;;;10.18;6.03;;;9.10;1.00;;;;;;5016660;28;20097;-73
2022/03/20 11:11:47;;;;;;;11.13;6.10;;;9.00;1.00;;;;;;5016602;28;20527;-73
2022/03/20 11:14:19;;;;;;;9.93;6.07;;;8.90;1.00;;;;;;5015681;28;20054;-74
2022/03/20 11:16:49;;;;;;;11.07;5.95;;;9.00;1.00;;;;;;4999542;28;20065;-74
2022/03/20 11:19:20;;;;;;;12.18;7.15;;;9.20;1.00;;;;;;5008972;28;20041;-75
2022/03/20 11:21:54;;;;;;;11.63;6.25;;;9.30;1.00;;;;;;5055218;28;20045;-74
2022/03/20 11:24:23;;;;;;;12.75;5.93;;;9.50;1.00;;;;;;5055058;28;20052;-74
2022/03/20 11:26:54;;;;;;;13.90;6.35;;;9.70;1.00;;;;;;5028403;28;20045;-74
2022/03/20 11:29:23;;;;;;;13.00;7.50;;;9.70;1.00;;;;;;5017615;28;20075;-73
2022/03/20 11:31:51;;;;;;;10.18;6.30;;;9.70;1.00;;;;;;5035848;28;20041;-73
2022/03/20 11:34:19;;;;;;;9.70;5.70;;;9.70;1.00;;;;;;5079021;22;20051;-75
2022/03/20 11:37:02;;;;;;;8.35;5.45;;;9.70;1.00;;;;;;5076671;28;20139;-76
2022/03/20 11:39:31;;;;;;;9.60;5.80;;;9.70;1.00;;;;;;5092859;28;20115;-76
2022/03/20 11:42:27;;;;;;;9.73;5.25;;;9.60;1.00;;;;;;5077479;28;20119;-77
2022/03/20 11:45:10;;;;;;;10.05;6.15;;;9.50;1.00;;;;;;5098596;28;20040;-76
2022/03/20 11:47:40;;;;;;;17.08;6.00;;;9.40;1.00;;;;;;5103141;28;20032;-78
2022/03/20 11:50:19;;;;;;;12.50;5.90;;;9.40;1.00;;;;;;5081004;28;20048;-77
2022/03/20 11:52:58;;;;;;;10.68;5.25;;;9.60;1.00;;;;;;5076186;28;20051;-76
2022/03/20 11:55:32;;;;;;;10.35;5.95;;;9.60;1.00;;;;;;5076107;28;20101;-78
2022/03/20 11:58:03;;;;;;;10.43;6.07;;;9.80;1.00;;;;;;5094223;28;20067;-76
2022/03/20 12:00:33;;;;;;;9.30;5.78;;;9.70;1.00;;;;;;5076655;28;20135;-77
2022/03/20 12:03:43;;;;;;;9.48;5.22;;;9.60;1.00;;;;;;5094373;28;20043;-77
2022/03/20 12:06:39;;;;;;;7.90;5.07;;;9.60;1.00;;;;;;5050061;28;20441;-75
2022/03/20 12:09:33;;;;;;;7.63;4.40;;;9.40;1.00;;;;;;5076253;28;20142;-75
2022/03/20 12:12:19;;;;;;;7.78;5.05;;;9.50;1.00;;;;;;5094338;28;20051;-75
2022/03/20 12:14:53;;;;;;;9.07;4.90;;;9.60;1.00;;;;;;5076211;28;20563;-76
2022/03/20 12:17:21;;;;;;;9.25;5.72;;;9.70;1.00;;;;;;5094998;28;20050;-77
2022/03/20 12:19:53;;;;;;;9.02;4.72;;;9.70;1.00;;;;;;5095280;28;20075;-77
2022/03/20 12:22:30;;;;;;;19.50;10.00;;;9.50;1.00;;;;;;5077015;28;20486;-77
2022/03/20 12:25:00;;;;;;;12.82;5.85;;;9.50;1.00;;;;;;5076169;28;20051;-76
2022/03/20 12:27:44;;;;;;;11.23;5.38;;;9.60;1.00;;;;;;5061364;28;20037;-75
2022/03/20 12:30:34;;;;;;;10.88;4.65;;;9.60;1.00;;;;;;5056234;28;20517;-77
2022/03/20 12:33:04;;;;;;;11.63;5.15;;;9.90;1.00;;;;;;5073972;28;20049;-76
2022/03/20 12:35:45;;;;;;;12.05;6.57;;;10.10;1.00;;;;;;5073912;28;20049;-76
2022/03/20 12:38:35;;;;;;;12.07;6.68;;;10.10;1.00;;;;;;5074433;28;20064;-76
2022/03/20 12:41:15;;;;;;;10.30;6.20;;;10.00;1.00;;;;;;5056180;28;20498;-76
2022/03/20 12:43:44;;;;;;;12.57;6.90;;;9.90;1.00;;;;;;5074181;28;20037;-77
2022/03/20 12:46:13;;;;;;;12.05;6.10;;;9.90;1.00;;;;;;5055902;28;20127;-76
2022/03/20 12:48:52;;;;;;;12.35;6.75;;;10.00;1.00;;;;;;5055784;28;20041;-76
2022/03/20 12:51:38;;;;;;;13.13;6.40;;;9.80;1.00;;;;;;5073611;28;20036;-77
2022/03/20 12:54:15;;;;;;;11.57;5.90;;;9.60;1.00;;;;;;5073625;28;20055;-77
2022/03/20 12:56:58;;;;;;;9.02;5.30;;;9.50;1.00;;;;;;5055958;28;20098;-76
2022/03/20 12:59:26;;;;;;;9.73;5.72;;;9.40;1.00;;;;;;5056094;28;20074;-77
2022/03/20 13:01:55;;;;;;;9.57;5.32;;;9.30;1.00;;;;;;5056000;28;20131;-77
2022/03/20 13:04:24;;;;;;;10.73;4.68;;;9.40;1.00;;;;;;5057834;28;20072;-77
2022/03/20 13:06:52;;;;;;;9.18;5.70;;;9.60;1.00;;;;;;5060109;28;20392;-76
2022/03/20 13:09:19;;;;;;;8.52;4.13;;;9.60;1.00;;;;;;5078551;28;20507;-77
2022/03/20 13:11:51;;;;;;;7.43;4.10;;;9.50;1.00;;;;;;5059762;28;20041;-76
2022/03/20 13:14:21;;;;;;;8.25;4.43;;;9.60;1.00;;;;;;5059139;28;20415;-76
2022/03/20 13:16:55;;;;;;;12.25;4.78;;;9.60;1.00;;;;;;5077785;28;20045;-77
2022/03/20 13:19:27;;;;;;;7.85;3.75;;;9.80;1.00;;;;;;5084585;28;20040;-77
2022/03/20 13:21:55;;;;;;;7.28;4.43;;;10.00;1.00;;;;;;5099426;28;20066;-76
2022/03/20 13:24:30;;;;;;;7.82;4.65;;;9.80;1.00;;;;;;5083161;28;20044;-76
2022/03/20 13:26:59;;;;;;;9.98;4.75;;;9.60;1.00;;;;;;5103128;28;20043;-75
2022/03/20 13:29:27;;;;;;;7.15;4.70;;;9.50;1.00;;;;;;5108819;28;20058;-76
2022/03/20 13:32:05;;;;;;;9.18;5.38;;;9.50;1.00;;;;;;5114345;28;20110;-77
2022/03/20 13:34:33;;;;;;;13.68;7.05;;;9.60;1.00;;;;;;5112674;28;20048;-77
2022/03/20 13:37:08;;;;;;;9.68;4.85;;;9.60;1.00;;;;;;5094576;28;20052;-76
2022/03/20 13:39:36;;;;;;;14.65;7.18;;;9.60;1.00;;;;;;5111300;28;20052;-76
2022/03/20 13:42:18;;;;;;;8.82;4.95;;;9.60;1.00;;;;;;5108658;28;20051;-76
2022/03/20 13:44:47;;;;;;;19.92;7.45;;;9.50;1.00;;;;;;5108052;28;20070;-76
2022/03/20 13:47:16;;;;;;;14.32;6.72;;;9.60;1.00;;;;;;5104794;28;20044;-76
2022/03/20 13:49:45;;;;;;;7.18;4.20;;;9.60;1.00;;;;;;5103107;28;20048;-78
2022/03/20 13:52:14;;;;;;;7.70;4.72;;;9.40;1.00;;;;;;5103865;28;20040;-76